sensor_id;sensor_type;location;lat;lon;timestamp;temperature;humidity
70244;DHT22;57634;51.136;17.024;2023-02-01T00:00:20;4.10;85.40
70244;DHT22;57634;51.136;17.024;2023-02-01T00:03:53;4.20;85.30
70244;DHT22;57634;51.136;17.024;2023-02-01T00:06:54;4.20;85.10
70244;DHT22;57634;51.136;17.024;2023-02-01T00:09:55;4.10;85.00
70244;DHT22;57634;51.136;17.024;2023-02-01T00:12:56;4.10;85.00
70244;DHT22;57634;51.136;17.024;2023-02-01T00:16:08;4.20;85.10
70244;DHT22;57634;51.136;17.024;2023-02-01T00:19:12;4.10;85.00
70244;DHT22;57634;51.136;17.024;2023-02-01T00:22:13;4.10;85.00
70244;DHT22;57634;51.136;17.024;2023-02-01T00:25:15;4.10;85.20
70244;DHT22;57634;51.136;17.024;2023-02-01T00:28:16;4.10;85.30
70244;DHT22;57634;51.136;17.024;2023-02-01T00:31:17;4.10;85.40
70244;DHT22;57634;51.136;17.024;2023-02-01T00:34:19;4.10;85.50
70244;DHT22;57634;51.136;17.024;2023-02-01T00:37:47;4.20;85.60
70244;DHT22;57634;51.136;17.024;2023-02-01T00:40:48;4.20;85.80
70244;DHT22;57634;51.136;17.024;2023-02-01T00:43:50;4.20;86.00
70244;DHT22;57634;51.136;17.024;2023-02-01T00:46:51;4.30;86.10
70244;DHT22;57634;51.136;17.024;2023-02-01T00:49:52;4.30;86.10
70244;DHT22;57634;51.136;17.024;2023-02-01T00:52:54;4.40;86.20
70244;DHT22;57634;51.136;17.024;2023-02-01T00:55:55;4.40;86.00
70244;DHT22;57634;51.136;17.024;2023-02-01T00:58:57;4.40;86.00
70244;DHT22;57634;51.136;17.024;2023-02-01T01:01:58;4.50;85.90
70244;DHT22;57634;51.136;17.024;2023-02-01T01:04:59;4.50;85.90
70244;DHT22;57634;51.136;17.024;2023-02-01T01:08:00;4.50;85.70
70244;DHT22;57634;51.136;17.024;2023-02-01T01:11:10;4.50;85.80
70244;DHT22;57634;51.136;17.024;2023-02-01T01:14:12;4.60;85.80
70244;DHT22;57634;51.136;17.024;2023-02-01T01:17:39;4.60;85.60
70244;DHT22;57634;51.136;17.024;2023-02-01T01:20:40;4.60;85.50
70244;DHT22;57634;51.136;17.024;2023-02-01T01:23:42;4.60;85.40
70244;DHT22;57634;51.136;17.024;2023-02-01T01:26:44;4.60;85.30
70244;DHT22;57634;51.136;17.024;2023-02-01T01:29:46;4.60;85.30
70244;DHT22;57634;51.136;17.024;2023-02-01T01:32:47;4.60;85.40
70244;DHT22;57634;51.136;17.024;2023-02-01T01:35:48;4.60;85.50
70244;DHT22;57634;51.136;17.024;2023-02-01T01:38:50;4.60;85.30
70244;DHT22;57634;51.136;17.024;2023-02-01T01:41:52;4.70;84.20
70244;DHT22;57634;51.136;17.024;2023-02-01T01:44:57;4.70;83.40
70244;DHT22;57634;51.136;17.024;2023-02-01T01:48:07;4.70;83.20
70244;DHT22;57634;51.136;17.024;2023-02-01T01:51:44;4.70;83.40
70244;DHT22;57634;51.136;17.024;2023-02-01T01:54:50;4.60;83.60
70244;DHT22;57634;51.136;17.024;2023-02-01T01:57:58;4.60;84.00
70244;DHT22;57634;51.136;17.024;2023-02-01T02:01:00;4.50;84.30
70244;DHT22;57634;51.136;17.024;2023-02-01T02:04:02;4.40;84.60
70244;DHT22;57634;51.136;17.024;2023-02-01T02:07:07;4.40;85.10
70244;DHT22;57634;51.136;17.024;2023-02-01T02:10:11;4.30;85.40
70244;DHT22;57634;51.136;17.024;2023-02-01T02:13:14;4.40;85.60
70244;DHT22;57634;51.136;17.024;2023-02-01T02:26:38;4.60;86.10
70244;DHT22;57634;51.136;17.024;2023-02-01T02:39:57;4.80;85.50
70244;DHT22;57634;51.136;17.024;2023-02-01T02:46:58;4.90;85.10
70244;DHT22;57634;51.136;17.024;2023-02-01T02:54:15;4.90;84.60
70244;DHT22;57634;51.136;17.024;2023-02-01T02:57:36;5.00;84.40
70244;DHT22;57634;51.136;17.024;2023-02-01T03:00:51;5.00;83.70
70244;DHT22;57634;51.136;17.024;2023-02-01T03:04:31;5.10;83.30
70244;DHT22;57634;51.136;17.024;2023-02-01T03:14:01;5.20;82.60
70244;DHT22;57634;51.136;17.024;2023-02-01T03:17:09;5.10;82.10
70244;DHT22;57634;51.136;17.024;2023-02-01T03:20:13;5.10;82.10
70244;DHT22;57634;51.136;17.024;2023-02-01T03:23:44;5.10;82.00
70244;DHT22;57634;51.136;17.024;2023-02-01T03:26:55;5.20;81.70
70244;DHT22;57634;51.136;17.024;2023-02-01T03:30:06;5.10;81.40
70244;DHT22;57634;51.136;17.024;2023-02-01T03:33:12;5.10;81.40
70244;DHT22;57634;51.136;17.024;2023-02-01T03:36:29;5.00;81.50
70244;DHT22;57634;51.136;17.024;2023-02-01T03:40:01;5.00;81.50
70244;DHT22;57634;51.136;17.024;2023-02-01T03:43:06;5.00;81.60
70244;DHT22;57634;51.136;17.024;2023-02-01T03:46:18;5.00;81.50
70244;DHT22;57634;51.136;17.024;2023-02-01T03:49:28;5.00;81.20
70244;DHT22;57634;51.136;17.024;2023-02-01T03:52:38;5.00;81.20
70244;DHT22;57634;51.136;17.024;2023-02-01T03:55:42;4.90;81.30
70244;DHT22;57634;51.136;17.024;2023-02-01T03:59:10;4.90;81.20
70244;DHT22;57634;51.136;17.024;2023-02-01T04:02:11;4.90;81.30
70244;DHT22;57634;51.136;17.024;2023-02-01T04:05:12;4.90;81.20
70244;DHT22;57634;51.136;17.024;2023-02-01T04:08:14;4.90;81.00
70244;DHT22;57634;51.136;17.024;2023-02-01T04:11:16;4.90;80.90
70244;DHT22;57634;51.136;17.024;2023-02-01T04:14:18;4.90;80.80
70244;DHT22;57634;51.136;17.024;2023-02-01T04:17:19;4.90;80.70
70244;DHT22;57634;51.136;17.024;2023-02-01T04:20:20;4.90;80.60
70244;DHT22;57634;51.136;17.024;2023-02-01T04:23:22;4.90;80.60
70244;DHT22;57634;51.136;17.024;2023-02-01T04:26:23;4.80;80.50
70244;DHT22;57634;51.136;17.024;2023-02-01T04:29:24;4.80;80.50
70244;DHT22;57634;51.136;17.024;2023-02-01T04:32:25;4.80;80.50
70244;DHT22;57634;51.136;17.024;2023-02-01T04:35:27;4.80;80.50
70244;DHT22;57634;51.136;17.024;2023-02-01T04:38:28;4.80;80.50
70244;DHT22;57634;51.136;17.024;2023-02-01T04:41:58;4.80;80.40
70244;DHT22;57634;51.136;17.024;2023-02-01T04:45:00;4.80;80.60
70244;DHT22;57634;51.136;17.024;2023-02-01T04:48:01;4.80;80.60
70244;DHT22;57634;51.136;17.024;2023-02-01T04:51:02;4.90;80.70
70244;DHT22;57634;51.136;17.024;2023-02-01T04:54:03;4.90;80.50
70244;DHT22;57634;51.136;17.024;2023-02-01T04:57:04;5.00;80.40
70244;DHT22;57634;51.136;17.024;2023-02-01T05:00:07;5.10;80.20
70244;DHT22;57634;51.136;17.024;2023-02-01T05:03:09;5.10;79.90
70244;DHT22;57634;51.136;17.024;2023-02-01T05:06:10;5.20;79.70
70244;DHT22;57634;51.136;17.024;2023-02-01T05:09:12;5.30;79.60
70244;DHT22;57634;51.136;17.024;2023-02-01T05:12:14;5.30;79.20
70244;DHT22;57634;51.136;17.024;2023-02-01T05:15:28;5.40;78.80
70244;DHT22;57634;51.136;17.024;2023-02-01T05:18:55;5.40;78.80
70244;DHT22;57634;51.136;17.024;2023-02-01T05:21:57;5.50;78.50
70244;DHT22;57634;51.136;17.024;2023-02-01T05:24:58;5.50;78.20
70244;DHT22;57634;51.136;17.024;2023-02-01T05:27:59;5.60;78.10
70244;DHT22;57634;51.136;17.024;2023-02-01T05:31:01;5.60;77.90
70244;DHT22;57634;51.136;17.024;2023-02-01T05:34:02;5.60;77.70
70244;DHT22;57634;51.136;17.024;2023-02-01T05:37:03;5.60;77.20
70244;DHT22;57634;51.136;17.024;2023-02-01T05:40:06;5.60;76.80
70244;DHT22;57634;51.136;17.024;2023-02-01T05:43:07;5.60;76.60
70244;DHT22;57634;51.136;17.024;2023-02-01T05:46:09;5.60;76.60
70244;DHT22;57634;51.136;17.024;2023-02-01T05:49:13;5.50;76.50
70244;DHT22;57634;51.136;17.024;2023-02-01T05:52:15;5.50;76.60
70244;DHT22;57634;51.136;17.024;2023-02-01T05:55:20;5.50;76.70
70244;DHT22;57634;51.136;17.024;2023-02-01T05:58:49;5.50;76.70
70244;DHT22;57634;51.136;17.024;2023-02-01T06:01:50;5.50;76.70
70244;DHT22;57634;51.136;17.024;2023-02-01T06:04:51;5.50;76.90
70244;DHT22;57634;51.136;17.024;2023-02-01T06:07:52;5.60;76.80
70244;DHT22;57634;51.136;17.024;2023-02-01T06:11:02;5.60;76.60
70244;DHT22;57634;51.136;17.024;2023-02-01T06:14:04;5.60;76.50
70244;DHT22;57634;51.136;17.024;2023-02-01T06:17:05;5.60;76.40
70244;DHT22;57634;51.136;17.024;2023-02-01T06:20:08;5.70;76.30
70244;DHT22;57634;51.136;17.024;2023-02-01T06:23:09;5.70;76.20
70244;DHT22;57634;51.136;17.024;2023-02-01T06:26:11;5.70;76.20
70244;DHT22;57634;51.136;17.024;2023-02-01T06:29:12;5.80;76.00
70244;DHT22;57634;51.136;17.024;2023-02-01T06:32:14;5.80;76.00
70244;DHT22;57634;51.136;17.024;2023-02-01T06:35:43;5.80;75.90
70244;DHT22;57634;51.136;17.024;2023-02-01T06:38:45;5.80;75.80
70244;DHT22;57634;51.136;17.024;2023-02-01T06:41:47;5.80;75.80
70244;DHT22;57634;51.136;17.024;2023-02-01T06:44:49;5.80;75.60
70244;DHT22;57634;51.136;17.024;2023-02-01T06:47:51;5.90;75.70
70244;DHT22;57634;51.136;17.024;2023-02-01T06:50:52;5.90;75.70
70244;DHT22;57634;51.136;17.024;2023-02-01T06:53:53;5.90;75.50
70244;DHT22;57634;51.136;17.024;2023-02-01T06:56:54;5.90;75.30
70244;DHT22;57634;51.136;17.024;2023-02-01T06:59:56;6.00;75.20
70244;DHT22;57634;51.136;17.024;2023-02-01T07:02:57;6.00;75.30
70244;DHT22;57634;51.136;17.024;2023-02-01T07:06:01;6.00;75.20
70244;DHT22;57634;51.136;17.024;2023-02-01T07:09:02;6.00;75.10
70244;DHT22;57634;51.136;17.024;2023-02-01T07:12:05;6.00;75.00
70244;DHT22;57634;51.136;17.024;2023-02-01T07:15:35;6.00;74.90
70244;DHT22;57634;51.136;17.024;2023-02-01T07:18:36;6.10;75.00
70244;DHT22;57634;51.136;17.024;2023-02-01T07:21:37;6.00;75.00
70244;DHT22;57634;51.136;17.024;2023-02-01T07:24:38;6.00;75.10
70244;DHT22;57634;51.136;17.024;2023-02-01T07:27:39;6.10;75.00
70244;DHT22;57634;51.136;17.024;2023-02-01T07:30:41;6.10;75.00
70244;DHT22;57634;51.136;17.024;2023-02-01T07:33:43;6.10;74.80
70244;DHT22;57634;51.136;17.024;2023-02-01T07:36:45;6.10;74.90
70244;DHT22;57634;51.136;17.024;2023-02-01T07:39:46;6.10;75.00
70244;DHT22;57634;51.136;17.024;2023-02-01T07:42:48;6.10;75.10
70244;DHT22;57634;51.136;17.024;2023-02-01T07:45:53;6.10;75.10
70244;DHT22;57634;51.136;17.024;2023-02-01T07:48:55;6.10;75.20
70244;DHT22;57634;51.136;17.024;2023-02-01T07:51:57;6.20;75.20
70244;DHT22;57634;51.136;17.024;2023-02-01T07:54:58;6.20;75.10
70244;DHT22;57634;51.136;17.024;2023-02-01T07:58:26;6.30;75.20
70244;DHT22;57634;51.136;17.024;2023-02-01T08:01:28;6.30;75.20
70244;DHT22;57634;51.136;17.024;2023-02-01T08:04:29;6.40;75.20
70244;DHT22;57634;51.136;17.024;2023-02-01T08:07:31;6.40;75.10
70244;DHT22;57634;51.136;17.024;2023-02-01T08:10:33;6.40;75.10
70244;DHT22;57634;51.136;17.024;2023-02-01T08:13:36;6.50;75.30
70244;DHT22;57634;51.136;17.024;2023-02-01T08:16:37;6.50;75.20
70244;DHT22;57634;51.136;17.024;2023-02-01T08:19:39;6.60;75.20
70244;DHT22;57634;51.136;17.024;2023-02-01T08:22:41;6.60;74.90
70244;DHT22;57634;51.136;17.024;2023-02-01T08:25:43;6.70;75.00
70244;DHT22;57634;51.136;17.024;2023-02-01T08:28:52;6.80;75.10
70244;DHT22;57634;51.136;17.024;2023-02-01T08:32:22;6.90;75.00
70244;DHT22;57634;51.136;17.024;2023-02-01T08:35:23;6.90;74.50
70244;DHT22;57634;51.136;17.024;2023-02-01T08:38:25;7.00;74.50
70244;DHT22;57634;51.136;17.024;2023-02-01T08:41:29;7.10;74.30
70244;DHT22;57634;51.136;17.024;2023-02-01T08:44:31;7.10;74.10
70244;DHT22;57634;51.136;17.024;2023-02-01T08:47:33;7.10;73.80
70244;DHT22;57634;51.136;17.024;2023-02-01T08:50:34;7.10;73.80
70244;DHT22;57634;51.136;17.024;2023-02-01T08:53:36;7.10;73.40
70244;DHT22;57634;51.136;17.024;2023-02-01T08:56:37;7.00;73.70
70244;DHT22;57634;51.136;17.024;2023-02-01T08:59:38;7.00;73.70
70244;DHT22;57634;51.136;17.024;2023-02-01T09:02:40;6.90;74.20
70244;DHT22;57634;51.136;17.024;2023-02-01T09:05:41;6.80;74.80
70244;DHT22;57634;51.136;17.024;2023-02-01T09:08:46;6.80;75.10
70244;DHT22;57634;51.136;17.024;2023-02-01T09:12:14;6.80;75.40
70244;DHT22;57634;51.136;17.024;2023-02-01T09:15:15;6.70;75.70
70244;DHT22;57634;51.136;17.024;2023-02-01T09:18:17;6.60;76.00
70244;DHT22;57634;51.136;17.024;2023-02-01T09:21:18;6.60;76.40
70244;DHT22;57634;51.136;17.024;2023-02-01T09:24:19;6.60;76.70
70244;DHT22;57634;51.136;17.024;2023-02-01T09:27:21;6.60;76.60
70244;DHT22;57634;51.136;17.024;2023-02-01T09:30:23;6.70;76.70
70244;DHT22;57634;51.136;17.024;2023-02-01T09:33:25;6.70;76.60
70244;DHT22;57634;51.136;17.024;2023-02-01T09:36:27;6.90;76.50
70244;DHT22;57634;51.136;17.024;2023-02-01T09:39:29;7.00;76.10
70244;DHT22;57634;51.136;17.024;2023-02-01T09:46:22;7.20;75.50
70244;DHT22;57634;51.136;17.024;2023-02-01T09:49:29;7.30;75.10
70244;DHT22;57634;51.136;17.024;2023-02-01T09:55:50;7.30;74.40
70244;DHT22;57634;51.136;17.024;2023-02-01T09:59:04;7.30;74.30
70244;DHT22;57634;51.136;17.024;2023-02-01T10:02:36;7.30;74.20
70244;DHT22;57634;51.136;17.024;2023-02-01T10:05:54;7.30;74.40
70244;DHT22;57634;51.136;17.024;2023-02-01T10:09:07;7.30;74.60
70244;DHT22;57634;51.136;17.024;2023-02-01T10:25:31;7.30;74.20
70244;DHT22;57634;51.136;17.024;2023-02-01T10:28:36;7.30;74.20
70244;DHT22;57634;51.136;17.024;2023-02-01T10:32:18;7.30;73.90
70244;DHT22;57634;51.136;17.024;2023-02-01T10:35:28;7.30;74.10
70244;DHT22;57634;51.136;17.024;2023-02-01T10:38:33;7.30;74.20
70244;DHT22;57634;51.136;17.024;2023-02-01T10:41:36;7.30;74.30
70244;DHT22;57634;51.136;17.024;2023-02-01T10:44:45;7.40;74.20
70244;DHT22;57634;51.136;17.024;2023-02-01T10:47:50;7.40;73.90
70244;DHT22;57634;51.136;17.024;2023-02-01T10:51:25;7.30;73.90
70244;DHT22;57634;51.136;17.024;2023-02-01T10:54:34;7.30;73.80
70244;DHT22;57634;51.136;17.024;2023-02-01T10:57:39;7.30;73.70
70244;DHT22;57634;51.136;17.024;2023-02-01T11:00:53;7.30;73.80
70244;DHT22;57634;51.136;17.024;2023-02-01T11:03:57;7.20;74.00
70244;DHT22;57634;51.136;17.024;2023-02-01T11:07:07;7.20;74.30
70244;DHT22;57634;51.136;17.024;2023-02-01T11:10:41;7.20;74.50
70244;DHT22;57634;51.136;17.024;2023-02-01T11:13:43;7.10;74.90
70244;DHT22;57634;51.136;17.024;2023-02-01T11:16:49;7.10;75.20
70244;DHT22;57634;51.136;17.024;2023-02-01T11:20:03;7.00;75.50
70244;DHT22;57634;51.136;17.024;2023-02-01T11:23:04;6.90;75.70
70244;DHT22;57634;51.136;17.024;2023-02-01T11:26:19;6.90;76.00
70244;DHT22;57634;51.136;17.024;2023-02-01T11:29:50;6.90;76.40
70244;DHT22;57634;51.136;17.024;2023-02-01T11:32:53;6.80;76.90
70244;DHT22;57634;51.136;17.024;2023-02-01T11:35:55;6.70;77.10
70244;DHT22;57634;51.136;17.024;2023-02-01T11:39:08;6.70;77.20
70244;DHT22;57634;51.136;17.024;2023-02-01T11:42:16;6.70;77.50
70244;DHT22;57634;51.136;17.024;2023-02-01T11:45:26;6.70;77.80
70244;DHT22;57634;51.136;17.024;2023-02-01T11:48:30;6.80;77.70
70244;DHT22;57634;51.136;17.024;2023-02-01T11:52:09;6.80;77.50
70244;DHT22;57634;51.136;17.024;2023-02-01T12:11:58;6.50;79.40
70244;DHT22;57634;51.136;17.024;2023-02-01T12:22:03;6.40;79.80
70244;DHT22;57634;51.136;17.024;2023-02-01T12:25:14;6.40;79.60
70244;DHT22;57634;51.136;17.024;2023-02-01T12:35:20;6.40;79.90
70244;DHT22;57634;51.136;17.024;2023-02-01T12:38:34;6.50;80.00
70244;DHT22;57634;51.136;17.024;2023-02-01T12:51:46;6.60;80.30
70244;DHT22;57634;51.136;17.024;2023-02-01T12:55:17;6.60;80.30
70244;DHT22;57634;51.136;17.024;2023-02-01T12:58:11;6.60;80.20
70244;DHT22;57634;51.136;17.024;2023-02-01T13:01:45;6.60;80.20
70244;DHT22;57634;51.136;17.024;2023-02-01T13:08:07;6.50;80.50
70244;DHT22;57634;51.136;17.024;2023-02-01T13:11:19;6.60;80.50
70244;DHT22;57634;51.136;17.024;2023-02-01T13:14:29;6.50;80.60
70244;DHT22;57634;51.136;17.024;2023-02-01T13:18:03;6.50;80.90
70244;DHT22;57634;51.136;17.024;2023-02-01T13:21:13;6.60;81.00
70244;DHT22;57634;51.136;17.024;2023-02-01T13:27:29;6.60;81.10
70244;DHT22;57634;51.136;17.024;2023-02-01T13:30:48;6.60;81.20
70244;DHT22;57634;51.136;17.024;2023-02-01T13:41:35;6.60;80.80
70244;DHT22;57634;51.136;17.024;2023-02-01T13:44:03;6.60;80.60
70244;DHT22;57634;51.136;17.024;2023-02-01T13:47:40;6.70;80.80
70244;DHT22;57634;51.136;17.024;2023-02-01T13:50:43;6.70;80.80
70244;DHT22;57634;51.136;17.024;2023-02-01T13:53:48;6.70;80.80
70244;DHT22;57634;51.136;17.024;2023-02-01T13:56:50;6.60;80.80
70244;DHT22;57634;51.136;17.024;2023-02-01T13:59:52;6.70;81.00
70244;DHT22;57634;51.136;17.024;2023-02-01T14:06:44;6.80;81.20
70244;DHT22;57634;51.136;17.024;2023-02-01T14:09:46;6.90;81.10
70244;DHT22;57634;51.136;17.024;2023-02-01T14:12:49;7.00;80.90
70244;DHT22;57634;51.136;17.024;2023-02-01T14:19:08;7.00;80.30
70244;DHT22;57634;51.136;17.024;2023-02-01T14:25:32;6.80;80.70
70244;DHT22;57634;51.136;17.024;2023-02-01T14:29:18;6.70;80.90
70244;DHT22;57634;51.136;17.024;2023-02-01T14:32:18;6.60;81.00
70244;DHT22;57634;51.136;17.024;2023-02-01T14:35:25;6.60;81.40
70244;DHT22;57634;51.136;17.024;2023-02-01T14:38:27;6.50;81.60
70244;DHT22;57634;51.136;17.024;2023-02-01T14:41:33;6.50;81.80
70244;DHT22;57634;51.136;17.024;2023-02-01T14:44:36;6.50;82.10
70244;DHT22;57634;51.136;17.024;2023-02-01T14:47:38;6.60;82.00
70244;DHT22;57634;51.136;17.024;2023-02-01T14:50:41;6.60;81.80
70244;DHT22;57634;51.136;17.024;2023-02-01T14:54:12;6.50;81.60
70244;DHT22;57634;51.136;17.024;2023-02-01T14:57:20;6.50;81.50
70244;DHT22;57634;51.136;17.024;2023-02-01T15:00:28;6.40;81.60
70244;DHT22;57634;51.136;17.024;2023-02-01T15:03:38;6.40;81.60
70244;DHT22;57634;51.136;17.024;2023-02-01T15:09:56;6.50;81.40
70244;DHT22;57634;51.136;17.024;2023-02-01T15:13:26;6.40;80.90
70244;DHT22;57634;51.136;17.024;2023-02-01T15:16:27;6.40;80.90
70244;DHT22;57634;51.136;17.024;2023-02-01T15:19:30;6.30;80.80
70244;DHT22;57634;51.136;17.024;2023-02-01T15:22:33;6.20;80.50
70244;DHT22;57634;51.136;17.024;2023-02-01T15:25:38;6.10;80.60
70244;DHT22;57634;51.136;17.024;2023-02-01T15:28:40;6.10;80.70
70244;DHT22;57634;51.136;17.024;2023-02-01T15:31:49;6.10;80.70
70244;DHT22;57634;51.136;17.024;2023-02-01T15:34:51;6.10;80.80
70244;DHT22;57634;51.136;17.024;2023-02-01T15:41:33;6.10;80.80
70244;DHT22;57634;51.136;17.024;2023-02-01T15:44:42;6.20;80.80
70244;DHT22;57634;51.136;17.024;2023-02-01T15:47:48;6.20;80.70
70244;DHT22;57634;51.136;17.024;2023-02-01T15:50:52;6.20;80.50
70244;DHT22;57634;51.136;17.024;2023-02-01T15:54:04;6.20;80.50
70244;DHT22;57634;51.136;17.024;2023-02-01T15:57:05;6.20;80.40
70244;DHT22;57634;51.136;17.024;2023-02-01T16:03:47;6.20;80.20
70244;DHT22;57634;51.136;17.024;2023-02-01T16:06:52;6.10;80.20
70244;DHT22;57634;51.136;17.024;2023-02-01T16:09:58;6.00;80.20
70244;DHT22;57634;51.136;17.024;2023-02-01T16:14:10;6.00;80.30
70244;DHT22;57634;51.136;17.024;2023-02-01T16:17:11;5.90;80.40
70244;DHT22;57634;51.136;17.024;2023-02-01T16:20:13;5.90;80.50
70244;DHT22;57634;51.136;17.024;2023-02-01T16:23:14;5.90;80.70
70244;DHT22;57634;51.136;17.024;2023-02-01T16:26:16;5.80;80.80
70244;DHT22;57634;51.136;17.024;2023-02-01T16:29:18;5.80;81.00
70244;DHT22;57634;51.136;17.024;2023-02-01T16:32:21;5.80;81.10
70244;DHT22;57634;51.136;17.024;2023-02-01T16:35:26;5.80;81.30
70244;DHT22;57634;51.136;17.024;2023-02-01T16:38:28;5.80;81.30
70244;DHT22;57634;51.136;17.024;2023-02-01T16:41:29;5.80;81.30
70244;DHT22;57634;51.136;17.024;2023-02-01T16:44:31;5.80;81.40
70244;DHT22;57634;51.136;17.024;2023-02-01T16:47:33;5.80;81.30
70244;DHT22;57634;51.136;17.024;2023-02-01T16:51:09;5.80;81.20
70244;DHT22;57634;51.136;17.024;2023-02-01T16:54:11;5.80;81.30
70244;DHT22;57634;51.136;17.024;2023-02-01T16:57:15;5.70;81.30
70244;DHT22;57634;51.136;17.024;2023-02-01T17:00:18;5.70;81.30
70244;DHT22;57634;51.136;17.024;2023-02-01T17:03:21;5.60;81.50
70244;DHT22;57634;51.136;17.024;2023-02-01T17:06:24;5.60;81.70
70244;DHT22;57634;51.136;17.024;2023-02-01T17:09:26;5.60;81.90
70244;DHT22;57634;51.136;17.024;2023-02-01T17:12:29;5.60;82.00
70244;DHT22;57634;51.136;17.024;2023-02-01T17:15:34;5.60;82.00
70244;DHT22;57634;51.136;17.024;2023-02-01T17:18:36;5.60;81.90
70244;DHT22;57634;51.136;17.024;2023-02-01T17:22:04;5.50;81.90
70244;DHT22;57634;51.136;17.024;2023-02-01T17:25:13;5.50;82.00
70244;DHT22;57634;51.136;17.024;2023-02-01T17:28:13;5.50;81.90
70244;DHT22;57634;51.136;17.024;2023-02-01T17:31:15;5.40;82.00
70244;DHT22;57634;51.136;17.024;2023-02-01T17:34:17;5.40;82.10
70244;DHT22;57634;51.136;17.024;2023-02-01T17:37:30;5.30;82.20
70244;DHT22;57634;51.136;17.024;2023-02-01T17:40:31;5.30;82.30
70244;DHT22;57634;51.136;17.024;2023-02-01T17:43:32;5.20;82.30
70244;DHT22;57634;51.136;17.024;2023-02-01T17:46:35;5.20;82.30
70244;DHT22;57634;51.136;17.024;2023-02-01T17:49:36;5.20;82.40
70244;DHT22;57634;51.136;17.024;2023-02-01T17:53:04;5.20;82.50
70244;DHT22;57634;51.136;17.024;2023-02-01T17:56:16;5.20;82.60
70244;DHT22;57634;51.136;17.024;2023-02-01T17:59:18;5.20;82.60
70244;DHT22;57634;51.136;17.024;2023-02-01T18:02:23;5.20;82.60
70244;DHT22;57634;51.136;17.024;2023-02-01T18:05:41;5.30;82.50
70244;DHT22;57634;51.136;17.024;2023-02-01T18:08:33;5.30;82.40
70244;DHT22;57634;51.136;17.024;2023-02-01T18:11:35;5.40;82.10
70244;DHT22;57634;51.136;17.024;2023-02-01T18:14:36;5.40;81.90
70244;DHT22;57634;51.136;17.024;2023-02-01T18:17:37;5.50;81.80
70244;DHT22;57634;51.136;17.024;2023-02-01T18:21:08;5.60;81.70
70244;DHT22;57634;51.136;17.024;2023-02-01T18:24:14;5.60;81.60
70244;DHT22;57634;51.136;17.024;2023-02-01T18:27:15;5.70;81.60
70244;DHT22;57634;51.136;17.024;2023-02-01T18:30:22;5.70;81.50
70244;DHT22;57634;51.136;17.024;2023-02-01T18:33:24;5.80;81.30
70244;DHT22;57634;51.136;17.024;2023-02-01T18:36:26;5.80;81.10
70244;DHT22;57634;51.136;17.024;2023-02-01T18:39:30;5.80;81.10
70244;DHT22;57634;51.136;17.024;2023-02-01T18:42:31;5.80;81.00
70244;DHT22;57634;51.136;17.024;2023-02-01T18:45:39;5.80;81.20
70244;DHT22;57634;51.136;17.024;2023-02-01T18:48:42;5.70;81.30
70244;DHT22;57634;51.136;17.024;2023-02-01T18:52:11;5.70;81.60
70244;DHT22;57634;51.136;17.024;2023-02-01T18:55:13;5.70;81.60
70244;DHT22;57634;51.136;17.024;2023-02-01T18:58:16;5.70;81.70
70244;DHT22;57634;51.136;17.024;2023-02-01T19:01:20;5.70;81.70
70244;DHT22;57634;51.136;17.024;2023-02-01T19:04:21;5.80;81.70
70244;DHT22;57634;51.136;17.024;2023-02-01T19:07:23;5.70;81.60
70244;DHT22;57634;51.136;17.024;2023-02-01T19:10:24;5.80;81.60
70244;DHT22;57634;51.136;17.024;2023-02-01T19:13:27;5.90;81.40
70244;DHT22;57634;51.136;17.024;2023-02-01T19:16:31;5.90;81.10
70244;DHT22;57634;51.136;17.024;2023-02-01T19:19:39;5.90;80.80
70244;DHT22;57634;51.136;17.024;2023-02-01T19:23:10;5.90;80.70
70244;DHT22;57634;51.136;17.024;2023-02-01T19:26:13;5.90;80.70
70244;DHT22;57634;51.136;17.024;2023-02-01T19:29:14;5.90;80.40
70244;DHT22;57634;51.136;17.024;2023-02-01T19:32:16;5.90;80.10
70244;DHT22;57634;51.136;17.024;2023-02-01T19:35:19;5.90;79.90
70244;DHT22;57634;51.136;17.024;2023-02-01T19:38:21;5.90;79.80
70244;DHT22;57634;51.136;17.024;2023-02-01T19:41:22;5.90;79.50
70244;DHT22;57634;51.136;17.024;2023-02-01T19:44:25;6.00;79.30
70244;DHT22;57634;51.136;17.024;2023-02-01T19:47:27;6.00;79.10
70244;DHT22;57634;51.136;17.024;2023-02-01T19:50:29;6.00;78.90
70244;DHT22;57634;51.136;17.024;2023-02-01T19:53:30;6.00;78.60
70244;DHT22;57634;51.136;17.024;2023-02-01T19:56:31;6.00;78.50
70244;DHT22;57634;51.136;17.024;2023-02-01T19:59:32;6.00;78.70
70244;DHT22;57634;51.136;17.024;2023-02-01T20:03:02;6.00;78.60
70244;DHT22;57634;51.136;17.024;2023-02-01T20:06:04;6.00;79.10
70244;DHT22;57634;51.136;17.024;2023-02-01T20:09:08;5.90;79.60
70244;DHT22;57634;51.136;17.024;2023-02-01T20:12:10;5.90;80.30
70244;DHT22;57634;51.136;17.024;2023-02-01T20:15:14;5.80;80.70
70244;DHT22;57634;51.136;17.024;2023-02-01T20:18:15;5.70;81.00
70244;DHT22;57634;51.136;17.024;2023-02-01T20:21:17;5.60;81.50
70244;DHT22;57634;51.136;17.024;2023-02-01T20:24:23;5.40;81.70
70244;DHT22;57634;51.136;17.024;2023-02-01T20:27:25;5.30;82.30
70244;DHT22;57634;51.136;17.024;2023-02-01T20:30:26;5.10;82.70
70244;DHT22;57634;51.136;17.024;2023-02-01T20:33:29;5.00;83.20
70244;DHT22;57634;51.136;17.024;2023-02-01T20:36:59;4.90;83.60
70244;DHT22;57634;51.136;17.024;2023-02-01T20:40:00;4.80;84.20
70244;DHT22;57634;51.136;17.024;2023-02-01T20:43:01;4.80;84.40
70244;DHT22;57634;51.136;17.024;2023-02-01T20:46:03;4.70;84.70
70244;DHT22;57634;51.136;17.024;2023-02-01T20:49:05;4.70;85.00
70244;DHT22;57634;51.136;17.024;2023-02-01T20:52:06;4.60;85.30
70244;DHT22;57634;51.136;17.024;2023-02-01T20:55:07;4.60;85.60
70244;DHT22;57634;51.136;17.024;2023-02-01T20:58:09;4.60;85.70
70244;DHT22;57634;51.136;17.024;2023-02-01T21:01:10;4.60;85.90
70244;DHT22;57634;51.136;17.024;2023-02-01T21:04:12;4.50;86.00
70244;DHT22;57634;51.136;17.024;2023-02-01T21:07:13;4.50;86.10
70244;DHT22;57634;51.136;17.024;2023-02-01T21:10:15;4.50;86.10
70244;DHT22;57634;51.136;17.024;2023-02-01T21:13:16;4.50;86.30
70244;DHT22;57634;51.136;17.024;2023-02-01T21:16:20;4.40;86.40
70244;DHT22;57634;51.136;17.024;2023-02-01T21:19:47;4.40;86.70
70244;DHT22;57634;51.136;17.024;2023-02-01T21:22:48;4.40;86.70
70244;DHT22;57634;51.136;17.024;2023-02-01T21:25:50;4.40;86.90
70244;DHT22;57634;51.136;17.024;2023-02-01T21:28:53;4.40;87.20
70244;DHT22;57634;51.136;17.024;2023-02-01T21:31:55;4.40;87.20
70244;DHT22;57634;51.136;17.024;2023-02-01T21:34:56;4.40;87.10
70244;DHT22;57634;51.136;17.024;2023-02-01T21:38:00;4.40;87.20
70244;DHT22;57634;51.136;17.024;2023-02-01T21:41:02;4.40;87.30
70244;DHT22;57634;51.136;17.024;2023-02-01T21:44:16;4.40;87.40
70244;DHT22;57634;51.136;17.024;2023-02-01T21:47:19;4.40;87.50